Oriibu — JD2579 — position and weather

sailwx.info

Track history (hours):
 
Tides and Currents Weather Stations Pressure Air Temp Water Temp Dewpoint Dewpoint Depression Visibility Wind Speed Wind Dir Waves Ship Positions

Oriibu

Last reported at 2016-Jul-02 06:06 UTC. Time now 2016-Jul-02 07:36 UTC.
Position N 35°06' E 139°41'.

Length 75 m; draft 4.2 m.

MMSI: 431000426.

Date/timePositionNaut miles runAvg speedWind from/ knotsBaromVisibWave heightAir tempDewpointWater temp
2016-Jul-02 06:06N 35°06' E 139°41'1610.1
2016-Jul-02 04:33N 35°22' E 139°42'5 5.1
2016-Jul-02 03:31N 35°27' E 139°43'8 8.5
2016-Jul-02 02:33N 35°31' E 139°52'1010.4
2016-Jul-02 01:33N 35°40' E 139°57'1 1.1
2016-Jul-02 00:23N 35°41' E 139°57'0 0.0
2016-Jul-01 23:32N 35°41' E 139°57'0 0.0
2016-Jul-01 22:20N 35°41' E 139°57'0 0.0
2016-Jul-01 21:29N 35°41' E 139°57'0 0.0
2016-Jul-01 20:29N 35°41' E 139°57'0 0.0
2016-Jul-01 19:32N 35°41' E 139°57'0 0.0
2016-Jul-01 18:32N 35°41' E 139°57'0 0.0
2016-Jul-01 17:29N 35°41' E 139°57'0 0.0
2016-Jul-01 16:26N 35°41' E 139°57'0 0.0
2016-Jul-01 15:29N 35°41' E 139°57'0 0.0
2016-Jul-01 14:32N 35°41' E 139°57'0 0.0
2016-Jul-01 13:32N 35°41' E 139°57'0 0.0
2016-Jul-01 12:32N 35°41' E 139°57'0 0.0
2016-Jul-01 11:23N 35°41' E 139°57'0 0.0
2016-Jul-01 10:31N 35°41' E 139°57'0 0.0
2016-Jul-01 09:32N 35°41' E 139°57'0 0.0
2016-Jul-01 08:32N 35°41' E 139°57'0 0.0
2016-Jul-01 07:32N 35°41' E 139°57'0 0.0
2016-Jul-01 06:31N 35°41' E 139°57'0 0.0
2016-Jul-01 05:28N 35°41' E 139°57'0 0.0
2016-Jul-01 04:31N 35°41' E 139°57'0 0.0
2016-Jul-01 03:31N 35°41' E 139°57'0 0.0
2016-Jul-01 02:31N 35°41' E 139°57'1 1.1
2016-Jul-01 01:33N 35°40' E 139°57'3 3.0
2016-Jul-01 00:29N 35°37' E 139°58'0 0.1
2016-Jun-30 23:29N 35°37' E 139°58'0 0.0
2016-Jun-30 22:32N 35°37' E 139°58'0 0.0
2016-Jun-30 21:29N 35°37' E 139°58'0 0.0
2016-Jun-30 20:17N 35°37' E 139°58'0 0.0
2016-Jun-30 19:17N 35°37' E 139°58'0 0.0
2016-Jun-30 18:23N 35°37' E 139°58'0 0.1
2016-Jun-30 17:32N 35°37' E 139°58'0 0.0
2016-Jun-30 16:32N 35°37' E 139°58'1 1.3
2016-Jun-30 15:33N 35°36' E 139°57'1212.2
2016-Jun-30 14:34N 35°26' E 139°48'1110.5
2016-Jun-30 13:33N 35°15' E 139°47'240 6.1
2016-Jun-28 22:29N 34°26' E 135°01'1011.0
2016-Jun-28 21:32N 34°36' E 135°02'1211.5
2016-Jun-28 20:32N 34°40' E 134°48'  
2016-Jun-23 10:21N 34°37' E 134°56'1012.7
2016-Jun-23 09:34N 34°36' E 135°08'1211.8
2016-Jun-23 08:34N 34°37' E 135°22'0 0.0
2016-Jun-23 07:32N 34°37' E 135°22'0 0.0
2016-Jun-23 05:14N 34°37' E 135°22'0 0.7
2016-Jun-23 04:32N 34°36' E 135°21'1212.0
2016-Jun-23 03:33N 34°28' E 135°11'  
Track history (hours):
 
Tides and Currents Weather Stations Pressure Air Temp Water Temp Dewpoint Dewpoint Depression Visibility Wind Speed Wind Dir Waves Ship Positions

Oriibu

Last reported at 2016-Jul-02 06:06 UTC. Time now 2016-Jul-02 07:36 UTC.
Position N 35°06' E 139°41'.

Length 75 m; draft 4.2 m.

MMSI: 431000426.

Date/timePositionNaut miles runAvg speedWind from/ knotsBaromVisibWave heightAir tempDewpointWater temp
2016-Jul-02 06:06N 35°06' E 139°41'1610.1
2016-Jul-02 04:33N 35°22' E 139°42'5 5.1
2016-Jul-02 03:31N 35°27' E 139°43'8 8.5
2016-Jul-02 02:33N 35°31' E 139°52'1010.4
2016-Jul-02 01:33N 35°40' E 139°57'1 1.1
2016-Jul-02 00:23N 35°41' E 139°57'0 0.0
2016-Jul-01 23:32N 35°41' E 139°57'0 0.0
2016-Jul-01 22:20N 35°41' E 139°57'0 0.0
2016-Jul-01 21:29N 35°41' E 139°57'0 0.0
2016-Jul-01 20:29N 35°41' E 139°57'0 0.0
2016-Jul-01 19:32N 35°41' E 139°57'0 0.0
2016-Jul-01 18:32N 35°41' E 139°57'0 0.0
2016-Jul-01 17:29N 35°41' E 139°57'0 0.0
2016-Jul-01 16:26N 35°41' E 139°57'0 0.0
2016-Jul-01 15:29N 35°41' E 139°57'0 0.0
2016-Jul-01 14:32N 35°41' E 139°57'0 0.0
2016-Jul-01 13:32N 35°41' E 139°57'0 0.0
2016-Jul-01 12:32N 35°41' E 139°57'0 0.0
2016-Jul-01 11:23N 35°41' E 139°57'0 0.0
2016-Jul-01 10:31N 35°41' E 139°57'0 0.0
2016-Jul-01 09:32N 35°41' E 139°57'0 0.0
2016-Jul-01 08:32N 35°41' E 139°57'0 0.0
2016-Jul-01 07:32N 35°41' E 139°57'0 0.0
2016-Jul-01 06:31N 35°41' E 139°57'0 0.0
2016-Jul-01 05:28N 35°41' E 139°57'0 0.0
2016-Jul-01 04:31N 35°41' E 139°57'0 0.0
2016-Jul-01 03:31N 35°41' E 139°57'0 0.0
2016-Jul-01 02:31N 35°41' E 139°57'1 1.1
2016-Jul-01 01:33N 35°40' E 139°57'3 3.0
2016-Jul-01 00:29N 35°37' E 139°58'0 0.1
2016-Jun-30 23:29N 35°37' E 139°58'0 0.0
2016-Jun-30 22:32N 35°37' E 139°58'0 0.0
2016-Jun-30 21:29N 35°37' E 139°58'0 0.0
2016-Jun-30 20:17N 35°37' E 139°58'0 0.0
2016-Jun-30 19:17N 35°37' E 139°58'0 0.0
2016-Jun-30 18:23N 35°37' E 139°58'0 0.1
2016-Jun-30 17:32N 35°37' E 139°58'0 0.0
2016-Jun-30 16:32N 35°37' E 139°58'1 1.3
2016-Jun-30 15:33N 35°36' E 139°57'1212.2
2016-Jun-30 14:34N 35°26' E 139°48'1110.5
2016-Jun-30 13:33N 35°15' E 139°47'240 6.1
2016-Jun-28 22:29N 34°26' E 135°01'1011.0
2016-Jun-28 21:32N 34°36' E 135°02'1211.5
2016-Jun-28 20:32N 34°40' E 134°48'  
2016-Jun-23 10:21N 34°37' E 134°56'1012.7
2016-Jun-23 09:34N 34°36' E 135°08'1211.8
2016-Jun-23 08:34N 34°37' E 135°22'0 0.0
2016-Jun-23 07:32N 34°37' E 135°22'0 0.0
2016-Jun-23 05:14N 34°37' E 135°22'0 0.7
2016-Jun-23 04:32N 34°36' E 135°21'1212.0
2016-Jun-23 03:33N 34°28' E 135°11'  

Dump ship's entire track history